Kingman, AZ

9:53 PM MST on September 20, 2014 (GMT -0700)
Needles | Change Station
CLOSE
Current Station
Airport
Location: Needles,
Elevation: 981 ft
Nearby Weather Stations

Elev 981 ft 34.77 °N, 114.62 °W | Updated 57 minutes ago

Mostly Cloudy
Mostly Cloudy
95 °F
Feels Like 92 °F
N
8
Wind Variable Wind from SSW

Today
High -- | Low -- °F
--% Chance of Precip.
Yesterday
High -- | Low -- °F
Precip. -- in
6:22 AM 6:35 PM
Waning Crescent, 8% visible
Pressure 29.67 in
Visibility 10.0 miles
Clouds Clear
Heat Index 92 °F
Dew Point 53 °F
Humidity 24%
Rainfall 0.00 in
Snow Depth 17 in , 0 in , 2 in
UV 0 out of 12
Pollen 6.10 out of 12
Air Quality Not available.
Flu Activity Not available.
METAR KEED 210356Z AUTO 21007KT 10SM CLR 35/12 A2978 RMK AO2 SLP047 T03500117

More Conditions Fewer Conditions

Pressure 29.67 in
Visibility 10.0 miles
Clouds Clear
Heat Index 92 °F
Dew Point 53 °F
Humidity 24%
Rainfall 0.00 in
Snow Depth 17 in , 0 in , 2 in
UV 0 out of 12
Pollen 6.10 out of 12
Air Quality Not available.
Flu Activity Not available.
METAR KEED 210356Z AUTO 21007KT 10SM CLR 35/12 A2978 RMK AO2 SLP047 T03500117

More Conditions Fewer Conditions

10-Day Weather Forecast

Almanac

Astronomy

Sep. 20, 2014 Rise Set
Actual Time 6:22 AM MST 6:35 PM MST
Civil Twilight 5:57 AM MST 7:01 PM MST
Nautical Twilight 5:27 AM MST 7:30 PM MST
Astronomical Twilight 4:57 AM MST 8:00 PM MST
Moon 3:11 AM MST (9/20) 4:36 PM MST (9/20)
Length of Visible Light 13h 03m
Length of Day
12h 13m
Tomorrow will be 2m 11s shorter.
Waning Crescent, 8% of the Moon is Illuminated
Sep 21
Waning Crescent
Sep 24
New
Oct 1
First Quarter
Oct 8
Full
Oct 15
Last Quarter

Yesterday's Extremes

State Highs State Lows

Community

WunderPhotos

Upload Photos

1,755,086 photos uploaded!

Nearby

Snow Depth

Station Depth Elevation
Beaver Head 17 in 7990 ft
Happy Jack 0 in 7630 ft
Snowslide Canyon 0 in 9730 ft
Workman Creek 2 in 6900 ft
Wildcat 0 in 7850 ft

Earthquake Activity

City Distance Mag. Time & Date
No recent earthquake activity has been reported nearby.
Minimum magnitude displayed is 2.5.

Coastal Water Temperatures

Place Temperature
No Stations Reporting

Nearby Weather Stations